createdAt,value
2024-01-14T00:00:38.910Z,260.6
2024-01-14T00:01:38.715Z,254.6
2024-01-14T00:02:38.686Z,242.9
2024-01-14T00:03:38.803Z,230.6
2024-01-14T00:04:38.795Z,266.8
2024-01-14T00:05:38.749Z,259.7
2024-01-14T00:06:38.699Z,262.8
2024-01-14T00:07:38.719Z,251.4
2024-01-14T00:08:38.695Z,234.8
2024-01-14T00:09:38.718Z,233.1
2024-01-14T00:10:38.677Z,260.9
2024-01-14T00:11:38.709Z,253.5
2024-01-14T00:12:38.677Z,264.2
2024-01-14T00:13:38.709Z,255.6
2024-01-14T00:14:39.054Z,255.9
2024-01-14T00:15:38.750Z,236.1
2024-01-14T00:16:38.697Z,231.1
2024-01-14T00:17:38.813Z,240.3
2024-01-14T00:18:38.876Z,258.6
2024-01-14T00:19:38.946Z,247.4
2024-01-14T00:20:38.725Z,242.3
2024-01-14T00:21:38.770Z,245.7
2024-01-14T00:22:38.700Z,244.3
2024-01-14T00:23:38.712Z,251.2
2024-01-14T00:24:38.707Z,239.6
2024-01-14T00:25:38.694Z,247.4
2024-01-14T00:26:38.730Z,254.8
2024-01-14T00:27:38.702Z,249.6
2024-01-14T00:28:38.691Z,257.3
2024-01-14T00:29:38.706Z,248.6
2024-01-14T00:30:38.747Z,246.2
2024-01-14T00:31:38.772Z,236.9
2024-01-14T00:32:38.712Z,236.5
2024-01-14T00:33:38.772Z,235.5
2024-01-14T00:34:38.730Z,235.9
2024-01-14T00:35:40.404Z,243.8
2024-01-14T00:36:38.742Z,250.9
2024-01-14T00:37:38.686Z,240.7
2024-01-14T00:38:38.694Z,256.2
2024-01-14T00:39:38.721Z,236.9
2024-01-14T00:40:38.684Z,242.3
2024-01-14T00:41:38.671Z,218.1
2024-01-14T00:42:38.716Z,215.5
2024-01-14T00:43:38.619Z,244.5
2024-01-14T00:44:38.690Z,243.2
2024-01-14T00:45:38.705Z,236.9
2024-01-14T00:46:38.709Z,235.5
2024-01-14T00:47:38.700Z,251.4
2024-01-14T00:48:38.803Z,244.5
2024-01-14T00:49:38.858Z,253.3
2024-01-14T00:50:38.665Z,246.7
2024-01-14T00:51:38.835Z,243.8
2024-01-14T00:52:38.685Z,232.4
2024-01-14T00:53:38.682Z,230.9
2024-01-14T00:54:38.725Z,245.7
2024-01-14T00:55:38.672Z,239.6
2024-01-14T00:56:38.681Z,235.5
2024-01-14T00:57:38.738Z,244.8
2024-01-14T00:58:38.689Z,235.7
2024-01-14T00:59:38.676Z,211.7
2024-01-14T01:00:38.812Z,211.5
2024-01-14T01:01:38.684Z,225.7
2024-01-14T01:02:38.679Z,234.6
2024-01-14T01:03:38.729Z,244.8
2024-01-14T01:04:38.759Z,208.5
2024-01-14T01:05:38.822Z,221.6
2024-01-14T01:06:38.772Z,228.8
2024-01-14T01:07:38.681Z,252.5
2024-01-14T01:08:38.660Z,237.7
2024-01-14T01:09:38.701Z,240.1
2024-01-14T01:10:38.673Z,254
2024-01-14T01:11:38.688Z,243.4
2024-01-14T01:12:38.745Z,251.4
2024-01-14T01:13:38.687Z,248.4
2024-01-14T01:14:38.679Z,254.3
2024-01-14T01:15:38.760Z,263.7
2024-01-14T01:16:38.677Z,285.3
2024-01-14T01:17:38.705Z,290.5
2024-01-14T01:18:38.866Z,242
2024-01-14T01:19:38.809Z,282.1
2024-01-14T01:20:38.690Z,285.6
2024-01-14T01:21:38.709Z,288.2
2024-01-14T01:22:38.719Z,285.1
2024-01-14T01:23:38.745Z,299.4
2024-01-14T01:24:38.731Z,292.5
2024-01-14T01:25:38.693Z,285.6
2024-01-14T01:26:38.703Z,288
2024-01-14T01:27:38.741Z,284
2024-01-14T01:28:38.704Z,293.9
2024-01-14T01:29:38.685Z,260.6
2024-01-14T01:30:38.744Z,246.9
2024-01-14T01:31:46.132Z,251.7
2024-01-14T01:32:38.805Z,242.9
2024-01-14T01:33:38.849Z,274
2024-01-14T01:34:39.047Z,275.7
2024-01-14T01:35:38.698Z,254.8
2024-01-14T01:36:38.749Z,231.1
2024-01-14T01:37:38.682Z,249.9
2024-01-14T01:38:38.704Z,246.4
2024-01-14T01:39:38.699Z,231.6
2024-01-14T01:40:38.707Z,255.6
2024-01-14T01:41:38.709Z,247.7
2024-01-14T01:42:38.717Z,242
2024-01-14T01:43:38.705Z,250.4
2024-01-14T01:44:38.682Z,280.2
2024-01-14T01:45:38.708Z,222.3
2024-01-14T01:46:38.723Z,233.3
2024-01-14T01:47:38.734Z,234.6
2024-01-14T01:48:38.849Z,213.8
2024-01-14T01:49:38.756Z,214
2024-01-14T01:50:38.726Z,236.3
2024-01-14T01:51:38.682Z,199
2024-01-14T01:52:38.707Z,209
2024-01-14T01:53:38.668Z,237.5
2024-01-14T01:54:38.705Z,233.1
2024-01-14T01:55:38.691Z,232.4
2024-01-14T01:56:38.704Z,236.1
2024-01-14T01:57:38.709Z,240.5
2024-01-14T01:58:38.692Z,235.9
2024-01-14T01:59:38.703Z,253.5
2024-01-14T02:00:38.828Z,259.7
2024-01-14T02:01:38.721Z,242
2024-01-14T02:02:38.724Z,244.3
2024-01-14T02:03:38.871Z,230.3
2024-01-14T02:04:38.759Z,231.3
2024-01-14T02:05:38.723Z,226.1
2024-01-14T02:06:38.745Z,240.9
2024-01-14T02:07:38.701Z,252.5
2024-01-14T02:08:38.706Z,226.7
2024-01-14T02:09:38.701Z,235.2
2024-01-14T02:10:38.712Z,229.8
2024-01-14T02:11:38.690Z,215.5
2024-01-14T02:12:38.752Z,204.4
2024-01-14T02:13:38.667Z,213.6
2024-01-14T02:14:38.684Z,232.5
2024-01-14T02:15:38.759Z,236.7
2024-01-14T02:16:38.692Z,221.5
2024-01-14T02:17:38.767Z,211.1
2024-01-14T02:18:38.795Z,216.3
2024-01-14T02:19:38.797Z,237.9
2024-01-14T02:20:38.693Z,211.5
2024-01-14T02:21:38.670Z,208.5
2024-01-14T02:22:38.665Z,216.6
2024-01-14T02:23:38.637Z,212.2
2024-01-14T02:24:38.658Z,210.1
2024-01-14T02:25:38.662Z,210.5
2024-01-14T02:26:38.686Z,210.3
2024-01-14T02:27:38.767Z,217.4
2024-01-14T02:28:38.690Z,204.4
2024-01-14T02:29:38.679Z,214.2
2024-01-14T02:30:38.754Z,216.1
2024-01-14T02:31:38.643Z,213
2024-01-14T02:32:38.856Z,230.1
2024-01-14T02:33:38.778Z,251.2
2024-01-14T02:34:38.972Z,256.2
2024-01-14T02:35:38.677Z,253.8
2024-01-14T02:36:38.666Z,255.4
2024-01-14T02:37:38.682Z,247.4
2024-01-14T02:38:38.662Z,266.8
2024-01-14T02:39:38.794Z,259.7
2024-01-14T02:40:38.678Z,265.9
2024-01-14T02:41:38.662Z,253
2024-01-14T02:42:38.713Z,246.2
2024-01-14T02:43:38.643Z,252.7
2024-01-14T02:44:38.666Z,247.4
2024-01-14T02:45:38.781Z,262
2024-01-14T02:46:38.681Z,297.4
2024-01-14T02:47:38.750Z,252.7
2024-01-14T02:48:38.799Z,263.4
2024-01-14T02:49:38.685Z,265.1
2024-01-14T02:50:38.667Z,261.1
2024-01-14T02:51:38.768Z,238.2
2024-01-14T02:52:38.689Z,260.3
2024-01-14T02:53:38.696Z,260.3
2024-01-14T02:54:38.720Z,261.4
2024-01-14T02:55:38.705Z,272.8
2024-01-14T02:56:38.675Z,257.8
2024-01-14T02:57:38.744Z,261.1
2024-01-14T02:58:38.709Z,267.1
2024-01-14T02:59:38.702Z,255.4
2024-01-14T03:00:38.853Z,250.2
2024-01-14T03:01:38.682Z,244.8
2024-01-14T03:02:38.752Z,252.2
2024-01-14T03:03:38.745Z,265.1
2024-01-14T03:04:38.710Z,256.5
2024-01-14T03:05:38.715Z,255.9
2024-01-14T03:06:38.716Z,262.3
2024-01-14T03:07:38.726Z,250.9
2024-01-14T03:08:38.690Z,246.2
2024-01-14T03:09:38.708Z,265.1
2024-01-14T03:10:38.704Z,261.4
2024-01-14T03:11:38.715Z,233.4
2024-01-14T03:12:38.739Z,246.4
2024-01-14T03:13:38.699Z,230.6
2024-01-14T03:14:38.696Z,239.2
2024-01-14T03:15:38.712Z,240.9
2024-01-14T03:16:38.715Z,258.9
2024-01-14T03:17:38.789Z,242.3
2024-01-14T03:18:38.850Z,223.9
2024-01-14T03:19:38.846Z,240.7
2024-01-14T03:20:38.710Z,229.1
2024-01-14T03:21:38.707Z,240.1
2024-01-14T03:22:38.690Z,240.3
2024-01-14T03:23:38.648Z,246.9
2024-01-14T03:24:38.693Z,265.9
2024-01-14T03:25:38.710Z,240.3
2024-01-14T03:26:38.737Z,219.6
2024-01-14T03:27:38.731Z,232.4
2024-01-14T03:28:38.696Z,224.9
2024-01-14T03:29:38.691Z,206.3
2024-01-14T03:30:38.828Z,204.4
2024-01-14T03:31:38.684Z,207.6
2024-01-14T03:32:38.713Z,211.3
2024-01-14T03:33:38.821Z,210.3
2024-01-14T03:34:38.748Z,212.2
2024-01-14T03:35:38.710Z,205.8
2024-01-14T03:36:38.717Z,200.3
2024-01-14T03:37:38.704Z,189.6
2024-01-14T03:38:38.689Z,207.2
2024-01-14T03:39:38.720Z,219.3
2024-01-14T03:40:38.701Z,183.4
2024-01-14T03:41:38.650Z,183.7
2024-01-14T03:42:38.738Z,198.2
2024-01-14T03:43:38.777Z,198.5
2024-01-14T03:44:38.691Z,212
2024-01-14T03:45:38.732Z,234
2024-01-14T03:46:38.721Z,224.1
2024-01-14T03:47:38.717Z,206.7
2024-01-14T03:48:38.892Z,218.6
2024-01-14T03:49:38.884Z,225.7
2024-01-14T03:50:38.679Z,221.8
2024-01-14T03:51:38.730Z,230.1
2024-01-14T03:52:38.675Z,233.6
2024-01-14T03:53:38.687Z,236.3
2024-01-14T03:54:38.758Z,239.2
2024-01-14T03:55:38.682Z,242.7
2024-01-14T03:56:38.705Z,245
2024-01-14T03:57:38.719Z,236.1
2024-01-14T03:58:38.692Z,233.3
2024-01-14T03:59:38.696Z,249.4
2024-01-14T04:00:38.719Z,244.5
2024-01-14T04:01:38.687Z,245.5
2024-01-14T04:02:38.698Z,249.6
2024-01-14T04:03:38.717Z,244.1
2024-01-14T04:04:38.764Z,240.3
2024-01-14T04:05:38.656Z,223.2
2024-01-14T04:06:38.828Z,233.1
2024-01-14T04:07:38.668Z,192.9
2024-01-14T04:08:38.653Z,240.1
2024-01-14T04:09:38.784Z,238.4
2024-01-14T04:10:38.693Z,234.8
2024-01-14T04:11:38.689Z,213.8
2024-01-14T04:12:38.744Z,213.4
2024-01-14T04:13:38.687Z,210.5
2024-01-14T04:14:38.674Z,257
2024-01-14T04:15:38.783Z,226.3
2024-01-14T04:16:38.692Z,265.9
2024-01-14T04:17:38.699Z,239.8
2024-01-14T04:18:38.700Z,233.1
2024-01-14T04:19:38.744Z,227.6
2024-01-14T04:20:38.680Z,247.4
2024-01-14T04:21:38.776Z,232.2
2024-01-14T04:22:38.688Z,256.5
2024-01-14T04:23:38.663Z,242.7
2024-01-14T04:24:38.706Z,239
2024-01-14T04:25:38.690Z,254.8
2024-01-14T04:26:38.692Z,221.5
2024-01-14T04:27:38.762Z,215.9
2024-01-14T04:28:38.662Z,231.3
2024-01-14T04:29:38.699Z,236.3
2024-01-14T04:30:38.781Z,224.5
2024-01-14T04:31:38.698Z,224.7
2024-01-14T04:32:38.695Z,228.6
2024-01-14T04:33:38.788Z,234.2
2024-01-14T04:34:38.662Z,237.3
2024-01-14T04:35:38.685Z,235.9
2024-01-14T04:36:38.782Z,234.8
2024-01-14T04:37:38.697Z,245.2
2024-01-14T04:38:38.695Z,250.7
2024-01-14T04:39:38.692Z,235.9
2024-01-14T04:40:38.697Z,232.2
2024-01-14T04:41:38.686Z,247.4
2024-01-14T04:42:38.740Z,238.6
2024-01-14T04:43:38.680Z,228.3
2024-01-14T04:44:38.656Z,224.4
2024-01-14T04:45:38.714Z,229.4
2024-01-14T04:46:38.683Z,230.8
2024-01-14T04:47:38.790Z,239
2024-01-14T04:48:38.903Z,287.7
2024-01-14T04:49:38.760Z,266.5
2024-01-14T04:50:38.790Z,247.4
2024-01-14T04:51:38.751Z,247.4
2024-01-14T04:52:38.703Z,259.7
2024-01-14T04:53:38.674Z,232.5
2024-01-14T04:54:38.681Z,242
2024-01-14T04:55:38.660Z,251.9
2024-01-14T04:56:38.660Z,244.8
2024-01-14T04:57:38.691Z,258.1
2024-01-14T04:58:38.681Z,249.9
2024-01-14T04:59:38.676Z,240.7
2024-01-14T05:00:38.832Z,237.1
2024-01-14T05:01:38.673Z,233.6
2024-01-14T05:02:38.681Z,250.4
2024-01-14T05:03:38.799Z,242.3
2024-01-14T05:04:38.690Z,245
2024-01-14T05:05:38.675Z,256.2
2024-01-14T05:06:38.720Z,251.2
2024-01-14T05:07:38.680Z,247.4
2024-01-14T05:08:38.632Z,241.6
2024-01-14T05:09:38.708Z,245.2
2024-01-14T05:10:38.696Z,227.6
2024-01-14T05:11:38.663Z,255.4
2024-01-14T05:12:38.704Z,225.8
2024-01-14T05:13:38.709Z,246.7
2024-01-14T05:14:38.708Z,211.7
2024-01-14T05:15:38.704Z,215.7
2024-01-14T05:16:38.694Z,226.1
2024-01-14T05:17:38.772Z,236.5
2024-01-14T05:18:38.793Z,201.3
2024-01-14T05:19:38.806Z,194
2024-01-14T05:20:38.719Z,226.4
2024-01-14T05:21:38.732Z,235.5
2024-01-14T05:22:38.671Z,211.5
2024-01-14T05:23:38.670Z,252.5
2024-01-14T05:24:38.680Z,255.6
2024-01-14T05:25:38.695Z,242
2024-01-14T05:26:38.694Z,233.6
2024-01-14T05:27:38.699Z,236.3
2024-01-14T05:28:38.704Z,233.8
2024-01-14T05:29:38.667Z,231.6
2024-01-14T05:30:38.843Z,225.8
2024-01-14T05:31:38.720Z,237.5
2024-01-14T05:32:38.706Z,253
2024-01-14T05:33:38.785Z,233.8
2024-01-14T05:34:38.691Z,256.7
2024-01-14T05:35:38.687Z,236.3
2024-01-14T05:36:38.685Z,253
2024-01-14T05:37:38.678Z,239.4
2024-01-14T05:38:38.698Z,236.5
2024-01-14T05:39:38.682Z,251.4
2024-01-14T05:40:38.689Z,242.7
2024-01-14T05:41:38.667Z,245.7
2024-01-14T05:42:38.684Z,278.2
2024-01-14T05:43:38.699Z,253.5
2024-01-14T05:44:38.670Z,259.7
2024-01-14T05:45:38.711Z,247.7
2024-01-14T05:46:38.704Z,224.7
2024-01-14T05:47:38.705Z,243.6
2024-01-14T05:48:38.777Z,246.9
2024-01-14T05:49:38.775Z,262.8
2024-01-14T05:50:38.614Z,239.8
2024-01-14T05:51:38.702Z,259.2
2024-01-14T05:52:38.701Z,236.5
2024-01-14T05:53:41.415Z,221.6
2024-01-14T05:54:38.684Z,234.4
2024-01-14T05:55:38.687Z,202
2024-01-14T05:56:38.698Z,220.3
2024-01-14T05:57:38.734Z,252.7
2024-01-14T05:58:38.694Z,194.3
2024-01-14T05:59:38.686Z,231.3
2024-01-14T06:00:38.745Z,219.6
2024-01-14T06:01:38.692Z,231.3
2024-01-14T06:02:38.737Z,218.3
2024-01-14T06:03:38.715Z,199.2
2024-01-14T06:04:38.692Z,244.3
2024-01-14T06:05:38.639Z,219.8
2024-01-14T06:06:38.885Z,228.4
2024-01-14T06:07:38.767Z,257.3
2024-01-14T06:08:38.696Z,261.7
2024-01-14T06:09:38.690Z,247.9
2024-01-14T06:10:40.466Z,281.3
2024-01-14T06:11:38.710Z,264.5
2024-01-14T06:12:38.749Z,194.3
2024-01-14T06:13:38.683Z,233.6
2024-01-14T06:14:38.688Z,246.9
2024-01-14T06:15:38.821Z,220.3
2024-01-14T06:16:38.695Z,202.2
2024-01-14T06:17:38.733Z,214.4
2024-01-14T06:18:38.855Z,252.7
2024-01-14T06:19:38.789Z,238.2
2024-01-14T06:20:38.685Z,262.5
2024-01-14T06:21:38.687Z,207
2024-01-14T06:22:38.660Z,220
2024-01-14T06:23:38.670Z,235.7
2024-01-14T06:24:38.845Z,258.4
2024-01-14T06:25:38.675Z,233.3
2024-01-14T06:26:38.671Z,215.9
2024-01-14T06:27:38.694Z,232.2
2024-01-14T06:28:38.692Z,193.7
2024-01-14T06:29:38.699Z,247.4
2024-01-14T06:30:38.747Z,264.5
2024-01-14T06:31:38.678Z,243.4
2024-01-14T06:32:38.667Z,255.6
2024-01-14T06:33:38.797Z,272.2
2024-01-14T06:34:38.899Z,233.3
2024-01-14T06:35:38.662Z,258.1
2024-01-14T06:36:38.706Z,261.7
2024-01-14T06:37:38.680Z,266.2
2024-01-14T06:38:38.670Z,274
2024-01-14T06:39:38.673Z,180
2024-01-14T06:40:41.316Z,242
2024-01-14T06:41:38.688Z,261.4
2024-01-14T06:42:38.718Z,241.1
2024-01-14T06:43:39.101Z,232.5
2024-01-14T06:44:38.682Z,220.8
2024-01-14T06:45:38.682Z,252.2
2024-01-14T06:46:38.667Z,234.2
2024-01-14T06:47:38.719Z,255.4
2024-01-14T06:48:38.779Z,251.4
2024-01-14T06:49:38.788Z,258.1
2024-01-14T06:50:38.676Z,255.1
2024-01-14T06:51:38.700Z,275.4
2024-01-14T06:52:38.679Z,258.1
2024-01-14T06:53:38.680Z,245.7
2024-01-14T06:54:38.803Z,257.3
2024-01-14T06:55:38.684Z,242.3
2024-01-14T06:56:38.659Z,241.6
2024-01-14T06:57:38.712Z,249.1
2024-01-14T06:58:38.683Z,289
2024-01-14T06:59:38.642Z,270.8
2024-01-14T07:00:38.824Z,219.6
2024-01-14T07:01:38.721Z,310.3
2024-01-14T07:02:38.668Z,226.1
2024-01-14T07:03:38.769Z,244.1
2024-01-14T07:04:38.816Z,224.2
2024-01-14T07:05:38.707Z,242
2024-01-14T07:06:38.724Z,220.3
2024-01-14T07:07:38.657Z,235.7
2024-01-14T07:08:38.687Z,237.7
2024-01-14T07:09:38.730Z,226
2024-01-14T07:10:38.719Z,210.5
2024-01-14T07:11:38.696Z,254.3
2024-01-14T07:12:38.701Z,266.2
2024-01-14T07:13:38.660Z,235.2
2024-01-14T07:14:38.688Z,267.9
2024-01-14T07:15:39.646Z,234
2024-01-14T07:16:38.691Z,235.2
2024-01-14T07:17:54.319Z,249.6
2024-01-14T07:18:38.803Z,203.5
2024-01-14T07:19:38.896Z,241.6
2024-01-14T07:20:38.723Z,239.6
2024-01-14T07:21:38.701Z,211.5
2024-01-14T07:22:38.684Z,226.9
2024-01-14T07:23:45.447Z,225.8
2024-01-14T07:24:38.694Z,215.9
2024-01-14T07:25:38.686Z,264.2
2024-01-14T07:26:38.697Z,253.8
2024-01-14T07:27:38.764Z,230.3
2024-01-14T07:28:38.671Z,223.9
2024-01-14T07:29:38.697Z,231.8
2024-01-14T07:30:38.768Z,226.1
2024-01-14T07:31:38.718Z,199.5
2024-01-14T07:32:38.697Z,233.1
2024-01-14T07:33:38.821Z,232.5
2024-01-14T07:34:38.806Z,250.4
2024-01-14T07:35:38.670Z,223.6
2024-01-14T07:36:38.738Z,240.1
2024-01-14T07:37:38.688Z,245
2024-01-14T07:38:38.653Z,226
2024-01-14T07:39:38.747Z,230.3
2024-01-14T07:40:38.676Z,243.4
2024-01-14T07:41:38.687Z,212.6
2024-01-14T07:42:38.694Z,223.6
2024-01-14T07:43:38.669Z,258.6
2024-01-14T07:44:38.690Z,215.1
2024-01-14T07:45:38.736Z,245.7
2024-01-14T07:46:38.689Z,227
2024-01-14T07:47:38.699Z,237.7
2024-01-14T07:48:38.889Z,222.1
2024-01-14T07:49:38.712Z,249.9
2024-01-14T07:50:38.675Z,258.6
2024-01-14T07:51:38.727Z,238.6
2024-01-14T07:52:38.674Z,213.6
2024-01-14T07:53:38.679Z,239.6
2024-01-14T07:54:38.731Z,247.7
2024-01-14T07:55:38.671Z,224.8
2024-01-14T07:56:38.685Z,229.4
2024-01-14T07:57:38.694Z,235.3
2024-01-14T07:58:38.674Z,225.8
2024-01-14T07:59:38.704Z,217.4
2024-01-14T08:00:45.460Z,232.4
2024-01-14T08:01:38.714Z,228.4
2024-01-14T08:02:38.838Z,226.1
2024-01-14T08:03:38.739Z,226.7
2024-01-14T08:04:38.786Z,234.4
2024-01-14T08:05:38.684Z,228.1
2024-01-14T08:06:38.711Z,224.2
2024-01-14T08:07:38.687Z,237.9
2024-01-14T08:08:38.673Z,231.5
2024-01-14T08:09:38.727Z,216.8
2024-01-14T08:10:38.659Z,218.6
2024-01-14T08:11:38.704Z,228.4
2024-01-14T08:12:41.998Z,217.5
2024-01-14T08:13:38.647Z,249.4
2024-01-14T08:14:38.686Z,281.8
2024-01-14T08:15:49.180Z,256.7
2024-01-14T08:16:38.685Z,220.8
2024-01-14T08:17:38.890Z,225.4
2024-01-14T08:18:38.797Z,215.3
2024-01-14T08:19:38.739Z,213.4
2024-01-14T08:20:38.690Z,219.8
2024-01-14T08:21:38.820Z,250.2
2024-01-14T08:22:38.741Z,249.1
2024-01-14T08:23:38.663Z,234.8
2024-01-14T08:24:38.802Z,229.4
2024-01-14T08:25:38.688Z,230.3
2024-01-14T08:26:38.667Z,239.4
2024-01-14T08:27:38.704Z,227.5
2024-01-14T08:28:38.678Z,226
2024-01-14T08:29:38.686Z,226.7
2024-01-14T08:30:38.733Z,216.3
2024-01-14T08:31:38.716Z,210.3
2024-01-14T08:32:38.723Z,207.9
2024-01-14T08:33:38.862Z,217.7
2024-01-14T08:34:39.122Z,235.3
2024-01-14T08:35:38.679Z,226.3
2024-01-14T08:36:38.800Z,219.8
2024-01-14T08:37:38.678Z,217
2024-01-14T08:38:38.687Z,221.8
2024-01-14T08:39:38.772Z,227.6
2024-01-14T08:40:38.651Z,222.6
2024-01-14T08:41:38.698Z,261.4
2024-01-14T08:42:38.672Z,229.9
2024-01-14T08:43:38.707Z,222.6
2024-01-14T08:44:38.670Z,216.6
2024-01-14T08:45:38.739Z,242.5
2024-01-14T08:46:38.676Z,236.1
2024-01-14T08:47:38.688Z,240.7
2024-01-14T08:48:38.919Z,236.7
2024-01-14T08:49:38.756Z,230.9
2024-01-14T08:50:38.689Z,219.3
2024-01-14T08:51:38.720Z,220.3
2024-01-14T08:52:38.686Z,230.1
2024-01-14T08:53:38.695Z,231.3
2024-01-14T08:54:38.772Z,236.7
2024-01-14T08:55:38.701Z,249.6
2024-01-14T08:56:38.715Z,226.4
2024-01-14T08:57:38.725Z,221.1
2024-01-14T08:58:38.670Z,214
2024-01-14T08:59:38.694Z,206.5
2024-01-14T09:00:38.740Z,222.1
2024-01-14T09:01:38.704Z,238.2
2024-01-14T09:02:38.666Z,195.6
2024-01-14T09:03:38.756Z,228.6
2024-01-14T09:04:38.894Z,343
2024-01-14T09:05:38.713Z,156.4
2024-01-14T09:06:38.796Z,254.8
2024-01-14T09:07:38.662Z,184
2024-01-14T09:08:38.677Z,240.5
2024-01-14T09:09:38.793Z,86.5
2024-01-14T09:10:38.695Z,158.9
2024-01-14T09:11:38.657Z,98.2
2024-01-14T09:12:38.896Z,144.8
2024-01-14T09:13:38.699Z,134.4
2024-01-14T09:14:38.674Z,137.3
2024-01-14T09:15:38.743Z,155.2
2024-01-14T09:16:38.671Z,223.2
2024-01-14T09:17:38.839Z,223.6
2024-01-14T09:18:38.846Z,172.5
2024-01-14T09:19:38.749Z,199.5
2024-01-14T09:20:38.692Z,190.2
2024-01-14T09:21:38.796Z,218.3
2024-01-14T09:22:38.686Z,174.2
2024-01-14T09:23:38.682Z,183.4
2024-01-14T09:24:38.865Z,222.1
2024-01-14T09:25:38.662Z,207
2024-01-14T09:26:38.686Z,202.7
2024-01-14T09:27:38.695Z,207.9
2024-01-14T09:28:38.680Z,232.4
2024-01-14T09:29:38.682Z,209
2024-01-14T09:30:38.712Z,210.9
2024-01-14T09:31:38.708Z,209.4
2024-01-14T09:32:38.698Z,210.1
2024-01-14T09:33:38.871Z,221
2024-01-14T09:34:38.800Z,211.1
2024-01-14T09:35:38.665Z,230.4
2024-01-14T09:36:38.759Z,229.6
2024-01-14T09:37:38.669Z,230.3
2024-01-14T09:38:38.697Z,201.8
2024-01-14T09:39:38.735Z,241.1
2024-01-14T09:40:38.643Z,208.1
2024-01-14T09:41:38.689Z,216.8
2024-01-14T09:42:38.779Z,214
2024-01-14T09:43:38.694Z,216.1
2024-01-14T09:44:38.694Z,236.3
2024-01-14T09:45:42.526Z,225.4
2024-01-14T09:46:38.661Z,220.6
2024-01-14T09:47:38.711Z,227.6
2024-01-14T09:48:38.844Z,216.3
2024-01-14T09:49:38.832Z,209.4
2024-01-14T09:50:38.686Z,207
2024-01-14T09:51:38.736Z,202.7
2024-01-14T09:52:38.733Z,217
2024-01-14T09:53:38.725Z,214.4
2024-01-14T09:54:38.788Z,205.6
2024-01-14T09:55:38.693Z,215.7
2024-01-14T09:56:38.692Z,226.3
2024-01-14T09:57:38.734Z,209
2024-01-14T09:58:38.693Z,192.1
2024-01-14T09:59:38.700Z,198.5
2024-01-14T10:00:38.779Z,212
2024-01-14T10:01:38.695Z,214.9
2024-01-14T10:02:38.692Z,226.1
2024-01-14T10:03:38.696Z,200.3
2024-01-14T10:04:38.778Z,203.9
2024-01-14T10:05:38.884Z,215.1
2024-01-14T10:06:38.826Z,197.7
2024-01-14T10:07:38.787Z,183.4
2024-01-14T10:08:38.698Z,185.4
2024-01-14T10:09:38.756Z,198.5
2024-01-14T10:10:38.665Z,243.2
2024-01-14T10:11:38.707Z,224.1
2024-01-14T10:12:38.857Z,208.8
2024-01-14T10:13:38.694Z,206.3
2024-01-14T10:14:38.680Z,226.4
2024-01-14T10:15:45.715Z,227.3
2024-01-14T10:16:51.759Z,219.6
2024-01-14T10:17:38.688Z,213.6
2024-01-14T10:18:38.743Z,222.3
2024-01-14T10:19:39.007Z,222.4
2024-01-14T10:20:38.671Z,208.3
2024-01-14T10:21:39.250Z,212
2024-01-14T10:22:38.643Z,207
2024-01-14T10:23:38.677Z,236.1
2024-01-14T10:24:38.730Z,197.2
2024-01-14T10:25:38.701Z,207
2024-01-14T10:26:38.681Z,201.3
2024-01-14T10:27:38.895Z,236.9
2024-01-14T10:28:38.724Z,213.4
2024-01-14T10:29:38.648Z,201
2024-01-14T10:30:38.888Z,217.9
2024-01-14T10:31:38.772Z,224.1
2024-01-14T10:33:15.514Z,194.8
2024-01-14T10:33:38.820Z,213
2024-01-14T10:34:38.935Z,210.9
2024-01-14T10:35:38.865Z,191.3
2024-01-14T10:36:38.733Z,203.2
2024-01-14T10:37:38.673Z,212
2024-01-14T10:38:38.693Z,217.5
2024-01-14T10:39:38.786Z,220.6
2024-01-14T10:40:38.673Z,200.8
2024-01-14T10:41:38.675Z,201.3
2024-01-14T10:42:38.696Z,204.2
2024-01-14T10:43:38.722Z,218.8
2024-01-14T10:44:38.725Z,218.4
2024-01-14T10:45:38.715Z,220
2024-01-14T10:46:38.652Z,214.2
2024-01-14T10:47:38.717Z,211.5
2024-01-14T10:48:38.777Z,214.7
2024-01-14T10:49:38.677Z,214.9
2024-01-14T10:50:45.106Z,201.8
2024-01-14T10:51:38.674Z,195.1
2024-01-14T10:52:38.702Z,212
2024-01-14T10:53:38.676Z,213
2024-01-14T10:54:38.754Z,206.1
2024-01-14T10:55:38.651Z,207.6
2024-01-14T10:56:38.699Z,203.2
2024-01-14T10:57:38.731Z,217.5
2024-01-14T10:58:38.649Z,224.5
2024-01-14T10:59:38.691Z,205.4
2024-01-14T11:00:38.762Z,199.7
2024-01-14T11:01:38.745Z,217.4
2024-01-14T11:02:38.775Z,207.4
2024-01-14T11:03:38.831Z,222.3
2024-01-14T11:04:38.702Z,227.5
2024-01-14T11:05:38.812Z,202
2024-01-14T11:06:38.776Z,207.6
2024-01-14T11:07:38.647Z,207.2
2024-01-14T11:08:38.708Z,202
2024-01-14T11:09:38.699Z,249.9
2024-01-14T11:10:38.690Z,231.3
2024-01-14T11:11:38.710Z,178.2
2024-01-14T11:12:39.588Z,202.5
2024-01-14T11:13:38.700Z,204.2
2024-01-14T11:14:38.707Z,199.7
2024-01-14T11:15:39.315Z,167.8
2024-01-14T11:16:38.661Z,204.4
2024-01-14T11:17:38.708Z,176.5
2024-01-14T11:18:38.880Z,202.7
2024-01-14T11:19:38.892Z,189.9
2024-01-14T11:20:49.473Z,211.7
2024-01-14T11:21:51.837Z,209.4
2024-01-14T11:22:43.554Z,202.7
2024-01-14T11:23:38.749Z,218.3
2024-01-14T11:24:38.799Z,199.5
2024-01-14T11:25:38.695Z,153.4
2024-01-14T11:26:38.652Z,180.8
2024-01-14T11:27:38.702Z,184.2
2024-01-14T11:28:38.681Z,177.7
2024-01-14T11:29:38.694Z,180.2
2024-01-14T11:30:38.728Z,186.2
2024-01-14T11:31:38.738Z,191
2024-01-14T11:32:38.738Z,184
2024-01-14T11:33:38.801Z,190.2
2024-01-14T11:34:38.852Z,170
2024-01-14T11:35:38.642Z,185.1
2024-01-14T11:36:38.736Z,209.2
2024-01-14T11:37:38.678Z,194.3
2024-01-14T11:38:38.667Z,201
2024-01-14T11:39:38.760Z,184.5
2024-01-14T11:40:38.652Z,186.8
2024-01-14T11:41:38.662Z,199
2024-01-14T11:42:38.771Z,205.4
2024-01-14T11:43:38.688Z,192.9
2024-01-14T11:44:38.688Z,199
2024-01-14T11:45:38.726Z,222.9
2024-01-14T11:46:38.683Z,199.2
2024-01-14T11:47:38.729Z,165.9
2024-01-14T11:48:38.880Z,175.4
2024-01-14T11:49:38.850Z,184.8
2024-01-14T11:50:38.966Z,155.7
2024-01-14T11:51:38.731Z,199.2
2024-01-14T11:52:38.679Z,192.1
2024-01-14T11:53:38.697Z,214.6
2024-01-14T11:54:38.852Z,192.9
2024-01-14T11:55:38.654Z,200.8
2024-01-14T11:56:38.717Z,185.4
2024-01-14T11:57:38.744Z,191
2024-01-14T11:58:38.655Z,218.3
2024-01-14T11:59:42.273Z,104.8
2024-01-14T12:00:38.797Z,125.7
2024-01-14T12:01:38.663Z,138.1
2024-01-14T12:02:38.672Z,144.4
2024-01-14T12:03:38.745Z,145
2024-01-14T12:04:38.711Z,139.8
2024-01-14T12:05:40.560Z,155.7
2024-01-14T12:06:38.751Z,185.4
2024-01-14T12:07:38.698Z,188.5
2024-01-14T12:08:38.653Z,179.1
2024-01-14T12:09:38.764Z,203.9
2024-01-14T12:10:38.686Z,166.5
2024-01-14T12:11:38.650Z,206.1
2024-01-14T12:12:38.686Z,213.6
2024-01-14T12:13:38.643Z,191
2024-01-14T12:14:38.965Z,157.9
2024-01-14T12:15:40.119Z,166.5
2024-01-14T12:16:38.689Z,173.1
2024-01-14T12:17:38.690Z,173.4
2024-01-14T12:18:40.907Z,175.4
2024-01-14T12:19:38.867Z,184.5
2024-01-14T12:20:38.673Z,156.2
2024-01-14T12:21:38.688Z,188.2
2024-01-14T12:22:38.659Z,185.1
2024-01-14T12:23:38.676Z,153.8
2024-01-14T12:24:38.759Z,147.9
2024-01-14T12:25:38.678Z,138.4
2024-01-14T12:26:38.710Z,166.2
2024-01-14T12:27:38.778Z,161.9
2024-01-14T12:28:38.631Z,176.5
2024-01-14T12:29:38.660Z,177.9
2024-01-14T12:30:38.844Z,169.7
2024-01-14T12:31:49.780Z,160.4
2024-01-14T12:32:38.781Z,174.2
2024-01-14T12:33:38.778Z,185.1
2024-01-14T12:34:38.754Z,177.1
2024-01-14T12:35:38.725Z,173.1
2024-01-14T12:36:46.028Z,208.5
2024-01-14T12:37:38.678Z,195.6
2024-01-14T12:38:38.684Z,184
2024-01-14T12:39:38.739Z,181.7
2024-01-14T12:40:39.111Z,195.3
2024-01-14T12:41:48.766Z,183.1
2024-01-14T12:42:38.888Z,179.7
2024-01-14T12:43:38.675Z,177.1
2024-01-14T12:44:38.642Z,196.9
2024-01-14T12:45:38.718Z,188.2
2024-01-14T12:46:47.868Z,190.4
2024-01-14T12:47:38.687Z,160.4
2024-01-14T12:48:38.742Z,175.1
2024-01-14T12:49:38.690Z,168.4
2024-01-14T12:50:38.919Z,183.7
2024-01-14T12:51:38.745Z,189.6
2024-01-14T12:52:38.669Z,170.9
2024-01-14T12:53:38.717Z,185.9
2024-01-14T12:54:38.728Z,169.7
2024-01-14T12:55:38.682Z,129.8
2024-01-14T12:56:38.693Z,160.4
2024-01-14T12:57:38.732Z,213